Time,TemperatureF,DewpointF,PressureIn,WindDirection,WindDirectionDegrees,WindSpeedMPH,WindSpeedGustMPH,Humidity,HourlyPrecipIn,Conditions,Clouds,dailyrainin,SoftwareType,DateUTC
2013-02-26 00:00:00,23.3,21.6,30.11,NW,315,0.0,2.0,93,0.00,,,0.00,Weather View 32 v70,2013-02-26 06:00:00,
2013-02-26 00:05:00,22.9,21.2,30.12,NW,315,1.0,2.0,93,0.00,,,0.00,Weather View 32 v70,2013-02-26 06:05:00,
2013-02-26 00:10:00,22.7,21.0,30.13,NW,315,0.0,2.0,93,0.00,,,0.00,Weather View 32 v70,2013-02-26 06:10:00,
2013-02-26 00:15:00,22.6,20.9,30.13,NW,315,2.0,2.0,93,0.00,,,0.00,Weather View 32 v70,2013-02-26 06:15:00,
2013-02-26 00:20:00,22.3,20.6,30.14,NW,315,1.0,2.0,93,0.00,,,0.00,Weather View 32 v70,2013-02-26 06:20:00,
2013-02-26 00:25:00,21.9,20.2,30.13,NW,315,0.0,2.0,93,0.00,,,0.00,Weather View 32 v70,2013-02-26 06:25:00,
2013-02-26 00:30:00,21.7,20.0,30.12,NW,315,0.0,2.0,93,0.00,,,0.00,Weather View 32 v70,2013-02-26 06:30:00,
2013-02-26 00:35:00,21.6,19.9,30.12,NW,315,0.0,2.0,93,0.00,,,0.00,Weather View 32 v70,2013-02-26 06:35:00,
2013-02-26 00:40:00,21.5,19.8,30.11,NW,315,0.0,2.0,93,0.00,,,0.00,Weather View 32 v70,2013-02-26 06:40:00,
2013-02-26 00:45:00,21.4,19.7,30.11,NW,315,1.0,2.0,93,0.00,,,0.00,Weather View 32 v70,2013-02-26 06:45:00,
2013-02-26 00:50:00,21.1,19.4,30.12,NW,315,0.0,2.0,93,0.00,,,0.00,Weather View 32 v70,2013-02-26 06:50:00,
2013-02-26 00:55:00,20.9,19.2,30.12,NW,315,1.0,2.0,93,0.00,,,0.00,Weather View 32 v70,2013-02-26 06:55:00,
2013-02-26 01:00:00,20.7,19.0,30.12,NW,315,1.0,2.0,93,0.00,,,0.00,Weather View 32 v70,2013-02-26 07:00:00,
2013-02-26 01:05:00,20.5,18.8,30.11,NW,315,2.0,4.0,93,0.00,,,0.00,Weather View 32 v70,2013-02-26 07:05:00,
2013-02-26 01:10:00,20.2,18.5,30.11,NW,315,1.0,5.0,93,0.00,,,0.00,Weather View 32 v70,2013-02-26 07:10:00,
2013-02-26 01:15:00,20.1,18.4,30.11,NW,315,0.0,5.0,93,0.00,,,0.00,Weather View 32 v70,2013-02-26 07:15:00,
2013-02-26 01:20:00,19.9,18.2,30.11,NW,315,1.0,5.0,93,0.00,,,0.00,Weather View 32 v70,2013-02-26 07:20:00,
2013-02-26 01:25:00,19.9,18.2,30.11,NW,315,0.0,5.0,93,0.00,,,0.00,Weather View 32 v70,2013-02-26 07:25:00,
2013-02-26 01:30:00,19.9,18.2,30.10,NW,315,1.0,5.0,93,0.00,,,0.00,Weather View 32 v70,2013-02-26 07:30:00,
2013-02-26 01:35:00,19.9,18.2,30.10,NW,315,0.0,5.0,93,0.00,,,0.00,Weather View 32 v70,2013-02-26 07:35:00,
2013-02-26 01:40:00,19.9,18.2,30.11,NW,315,2.0,5.0,93,0.00,,,0.00,Weather View 32 v70,2013-02-26 07:40:00,
2013-02-26 01:45:00,19.8,18.1,30.10,NW,315,1.0,5.0,93,0.00,,,0.00,Weather View 32 v70,2013-02-26 07:45:00,
2013-02-26 01:50:00,19.7,18.0,30.10,NW,315,0.0,5.0,93,0.00,,,0.00,Weather View 32 v70,2013-02-26 07:50:00,
2013-02-26 01:55:00,19.7,18.0,30.10,NW,315,1.0,5.0,93,0.00,,,0.00,Weather View 32 v70,2013-02-26 07:55:00,
2013-02-26 02:00:00,19.7,18.0,30.10,NW,315,0.0,5.0,93,0.00,,,0.00,Weather View 32 v70,2013-02-26 08:00:00,
2013-02-26 02:05:00,19.7,18.0,30.10,NW,315,1.0,5.0,93,0.00,,,0.00,Weather View 32 v70,2013-02-26 08:05:00,
2013-02-26 02:10:00,19.8,18.1,30.10,NW,315,0.0,3.0,93,0.00,,,0.00,Weather View 32 v70,2013-02-26 08:10:00,
2013-02-26 02:15:00,19.8,18.1,30.10,NW,315,1.0,3.0,93,0.00,,,0.00,Weather View 32 v70,2013-02-26 08:15:00,
2013-02-26 02:20:00,19.8,18.1,30.09,NW,315,1.0,3.0,93,0.00,,,0.00,Weather View 32 v70,2013-02-26 08:20:00,
2013-02-26 02:25:00,19.8,18.1,30.09,NW,315,1.0,3.0,93,0.00,,,0.00,Weather View 32 v70,2013-02-26 08:25:00,
2013-02-26 02:30:00,19.9,18.2,30.09,NW,315,1.0,3.0,93,0.00,,,0.00,Weather View 32 v70,2013-02-26 08:30:00,
2013-02-26 02:35:00,19.9,18.2,30.09,NW,315,0.0,3.0,93,0.00,,,0.00,Weather View 32 v70,2013-02-26 08:35:00,
2013-02-26 02:40:00,19.9,18.2,30.09,NW,315,0.0,4.0,93,0.00,,,0.00,Weather View 32 v70,2013-02-26 08:40:00,
2013-02-26 02:45:00,19.9,18.2,30.09,NW,315,2.0,4.0,93,0.00,,,0.00,Weather View 32 v70,2013-02-26 08:45:00,
2013-02-26 02:50:00,19.9,18.2,30.09,NW,315,1.0,4.0,93,0.00,,,0.00,Weather View 32 v70,2013-02-26 08:50:00,
2013-02-26 02:55:00,20.0,18.3,30.09,NW,315,2.0,4.0,93,0.00,,,0.00,Weather View 32 v70,2013-02-26 08:55:00,
2013-02-26 03:00:00,20.1,18.4,30.09,NW,315,1.0,5.0,93,0.00,,,0.00,Weather View 32 v70,2013-02-26 09:00:00,
2013-02-26 03:05:00,20.1,18.4,30.09,NW,315,1.0,6.0,93,0.00,,,0.00,Weather View 32 v70,2013-02-26 09:05:00,
2013-02-26 03:10:00,20.1,18.4,30.09,NW,315,2.0,6.0,93,0.00,,,0.00,Weather View 32 v70,2013-02-26 09:10:00,
2013-02-26 03:15:00,20.2,18.5,30.09,NW,315,2.0,6.0,93,0.00,,,0.00,Weather View 32 v70,2013-02-26 09:15:00,
2013-02-26 03:20:00,20.2,18.5,30.08,NW,315,0.0,6.0,93,0.00,,,0.00,Weather View 32 v70,2013-02-26 09:20:00,
2013-02-26 03:25:00,20.3,18.6,30.08,NW,315,2.0,6.0,93,0.00,,,0.00,Weather View 32 v70,2013-02-26 09:25:00,
2013-02-26 03:30:00,20.3,18.6,30.08,NW,315,1.0,6.0,93,0.00,,,0.00,Weather View 32 v70,2013-02-26 09:30:00,
2013-02-26 03:35:00,20.3,18.6,30.07,NW,315,1.0,6.0,93,0.00,,,0.00,Weather View 32 v70,2013-02-26 09:35:00,
2013-02-26 03:40:00,20.4,18.7,30.07,NW,315,2.0,6.0,93,0.00,,,0.00,Weather View 32 v70,2013-02-26 09:40:00,
2013-02-26 03:45:00,20.4,18.7,30.06,NW,315,4.0,6.0,93,0.00,,,0.00,Weather View 32 v70,2013-02-26 09:45:00,
2013-02-26 03:50:00,20.4,18.7,30.06,NW,315,2.0,8.0,93,0.00,,,0.00,Weather View 32 v70,2013-02-26 09:50:00,
2013-02-26 03:55:00,20.4,18.7,30.06,NW,315,2.0,8.0,93,0.00,,,0.00,Weather View 32 v70,2013-02-26 09:55:00,
2013-02-26 04:00:00,20.4,18.7,30.06,NW,315,6.0,8.0,93,0.00,,,0.00,Weather View 32 v70,2013-02-26 10:00:00,
2013-02-26 04:05:00,20.3,18.6,30.06,NW,315,1.0,8.0,93,0.00,,,0.00,Weather View 32 v70,2013-02-26 10:05:00,
2013-02-26 04:10:00,20.2,18.5,30.06,NW,315,2.0,8.0,93,0.00,,,0.00,Weather View 32 v70,2013-02-26 10:10:00,
2013-02-26 04:15:00,20.2,18.5,30.06,NW,315,1.0,8.0,93,0.00,,,0.00,Weather View 32 v70,2013-02-26 10:15:00,
2013-02-26 04:20:00,20.1,18.4,30.06,NW,315,2.0,8.0,93,0.00,,,0.00,Weather View 32 v70,2013-02-26 10:20:00,
2013-02-26 04:26:00,20.1,18.4,30.06,NW,315,1.0,8.0,93,0.00,,,0.00,Weather View 32 v70,2013-02-26 10:26:00,
2013-02-26 04:31:00,20.1,18.4,30.06,NW,315,1.0,8.0,93,0.00,,,0.00,Weather View 32 v70,2013-02-26 10:31:00,
2013-02-26 04:36:00,19.9,18.2,30.06,NW,315,0.0,8.0,93,0.00,,,0.00,Weather View 32 v70,2013-02-26 10:36:00,
2013-02-26 04:41:00,19.9,18.2,30.06,NW,315,1.0,8.0,93,0.00,,,0.00,Weather View 32 v70,2013-02-26 10:41:00,
2013-02-26 04:46:00,19.9,18.2,30.06,NW,315,2.0,8.0,93,0.00,,,0.00,Weather View 32 v70,2013-02-26 10:46:00,
2013-02-26 04:51:00,19.9,18.2,30.06,NW,315,1.0,8.0,93,0.00,,,0.00,Weather View 32 v70,2013-02-26 10:51:00,
2013-02-26 04:56:00,19.9,18.2,30.06,NW,315,2.0,8.0,93,0.00,,,0.00,Weather View 32 v70,2013-02-26 10:56:00,
2013-02-26 05:01:00,19.9,18.2,30.06,NW,315,1.0,8.0,93,0.00,,,0.00,Weather View 32 v70,2013-02-26 11:01:00,
2013-02-26 05:06:00,19.9,18.2,30.05,NW,315,1.0,8.0,93,0.00,,,0.00,Weather View 32 v70,2013-02-26 11:06:00,
2013-02-26 05:11:00,19.9,18.2,30.05,NW,315,1.0,8.0,93,0.00,,,0.00,Weather View 32 v70,2013-02-26 11:11:00,
2013-02-26 05:16:00,19.8,18.1,30.06,NW,315,2.0,8.0,93,0.00,,,0.00,Weather View 32 v70,2013-02-26 11:16:00,
2013-02-26 05:21:00,19.6,17.9,30.05,NW,315,4.0,8.0,93,0.00,,,0.00,Weather View 32 v70,2013-02-26 11:21:00,
2013-02-26 05:26:00,19.4,17.7,30.05,NW,315,2.0,8.0,93,0.00,,,0.00,Weather View 32 v70,2013-02-26 11:26:00,
2013-02-26 05:31:00,19.3,17.6,30.06,NW,315,1.0,8.0,93,0.00,,,0.00,Weather View 32 v70,2013-02-26 11:31:00,
2013-02-26 05:36:00,19.2,17.5,30.06,NW,315,1.0,8.0,93,0.00,,,0.00,Weather View 32 v70,2013-02-26 11:36:00,
2013-02-26 05:41:00,19.1,17.4,30.06,NW,315,2.0,6.0,93,0.00,,,0.00,Weather View 32 v70,2013-02-26 11:41:00,
2013-02-26 05:46:00,19.1,17.4,30.07,NW,315,1.0,6.0,93,0.00,,,0.00,Weather View 32 v70,2013-02-26 11:46:00,
2013-02-26 05:51:00,19.0,17.3,30.06,NW,315,1.0,6.0,93,0.00,,,0.00,Weather View 32 v70,2013-02-26 11:51:00,
2013-02-26 05:56:00,19.0,17.3,30.07,NW,315,2.0,6.0,93,0.00,,,0.00,Weather View 32 v70,2013-02-26 11:56:00,
2013-02-26 06:01:00,19.0,17.3,30.06,NW,315,1.0,6.0,93,0.00,,,0.00,Weather View 32 v70,2013-02-26 12:01:00,
2013-02-26 06:06:00,19.0,17.3,30.06,NW,315,1.0,6.0,93,0.00,,,0.00,Weather View 32 v70,2013-02-26 12:06:00,
2013-02-26 06:11:00,19.0,17.3,30.06,NW,315,1.0,6.0,93,0.00,,,0.00,Weather View 32 v70,2013-02-26 12:11:00,
2013-02-26 06:16:00,19.0,17.3,30.06,NW,315,2.0,6.0,93,0.00,,,0.00,Weather View 32 v70,2013-02-26 12:16:00,
2013-02-26 06:21:00,19.1,17.4,30.06,NW,315,2.0,6.0,93,0.00,,,0.00,Weather View 32 v70,2013-02-26 12:21:00,
2013-02-26 06:26:00,19.1,17.4,30.06,NW,315,1.0,6.0,93,0.00,,,0.00,Weather View 32 v70,2013-02-26 12:26:00,
2013-02-26 06:31:00,19.1,17.4,30.06,NW,315,2.0,6.0,93,0.00,,,0.00,Weather View 32 v70,2013-02-26 12:31:00,
2013-02-26 06:36:00,19.1,17.4,30.06,NW,315,2.0,6.0,93,0.00,,,0.00,Weather View 32 v70,2013-02-26 12:36:00,
2013-02-26 06:41:00,19.2,17.5,30.06,NW,315,1.0,6.0,93,0.00,,,0.00,Weather View 32 v70,2013-02-26 12:41:00,
2013-02-26 06:46:00,19.2,17.5,30.06,NW,315,2.0,6.0,93,0.00,,,0.00,Weather View 32 v70,2013-02-26 12:46:00,
2013-02-26 06:51:00,19.1,17.4,30.06,NW,315,2.0,6.0,93,0.00,,,0.00,Weather View 32 v70,2013-02-26 12:51:00,
2013-02-26 06:56:00,18.9,17.2,30.06,NW,315,2.0,6.0,93,0.00,,,0.00,Weather View 32 v70,2013-02-26 12:56:00,
2013-02-26 07:01:00,18.9,17.2,30.05,NW,315,1.0,6.0,93,0.00,,,0.00,Weather View 32 v70,2013-02-26 13:01:00,
2013-02-26 07:06:00,18.9,17.2,30.05,NW,315,2.0,6.0,93,0.00,,,0.00,Weather View 32 v70,2013-02-26 13:06:00,
2013-02-26 07:11:00,18.8,17.1,30.06,NW,315,1.0,6.0,93,0.00,,,0.00,Weather View 32 v70,2013-02-26 13:11:00,
2013-02-26 07:16:00,18.8,17.1,30.05,NW,315,1.0,6.0,93,0.00,,,0.00,Weather View 32 v70,2013-02-26 13:16:00,
2013-02-26 07:21:00,18.9,17.2,30.06,NW,315,3.0,6.0,93,0.00,,,0.00,Weather View 32 v70,2013-02-26 13:21:00,
2013-02-26 07:27:00,18.9,17.2,30.05,NW,315,2.0,6.0,93,0.00,,,0.00,Weather View 32 v70,2013-02-26 13:27:00,
2013-02-26 07:32:00,18.9,17.2,30.05,NW,315,4.0,8.0,93,0.00,,,0.00,Weather View 32 v70,2013-02-26 13:32:00,
2013-02-26 07:37:00,18.9,17.2,30.05,NW,315,2.0,8.0,93,0.00,,,0.00,Weather View 32 v70,2013-02-26 13:37:00,
2013-02-26 07:42:00,18.9,17.2,30.06,NW,315,1.0,8.0,93,0.00,,,0.00,Weather View 32 v70,2013-02-26 13:42:00,
2013-02-26 07:47:00,18.9,17.2,30.05,NW,315,2.0,8.0,93,0.00,,,0.00,Weather View 32 v70,2013-02-26 13:47:00,
2013-02-26 07:52:00,19.0,17.3,30.06,NW,315,0.0,8.0,93,0.00,,,0.00,Weather View 32 v70,2013-02-26 13:52:00,
2013-02-26 07:57:00,19.1,17.4,30.06,NW,315,2.0,8.0,93,0.00,,,0.00,Weather View 32 v70,2013-02-26 13:57:00,
2013-02-26 08:02:00,19.3,17.6,30.06,NW,315,3.0,8.0,93,0.00,,,0.00,Weather View 32 v70,2013-02-26 14:02:00,
2013-02-26 08:07:00,19.4,17.7,30.06,NW,315,2.0,8.0,93,0.00,,,0.00,Weather View 32 v70,2013-02-26 14:07:00,
2013-02-26 08:12:00,19.5,17.8,30.06,NW,315,2.0,8.0,93,0.00,,,0.00,Weather View 32 v70,2013-02-26 14:12:00,
2013-02-26 08:17:00,19.7,18.0,30.06,NW,315,2.0,8.0,93,0.00,,,0.00,Weather View 32 v70,2013-02-26 14:17:00,
2013-02-26 08:22:00,19.7,18.0,30.06,NW,315,7.0,9.0,93,0.00,,,0.00,Weather View 32 v70,2013-02-26 14:22:00,
2013-02-26 08:27:00,19.8,18.1,30.05,NW,315,2.0,9.0,93,0.00,,,0.00,Weather View 32 v70,2013-02-26 14:27:00,
2013-02-26 08:32:00,19.9,18.2,30.06,NW,315,4.0,9.0,93,0.00,,,0.00,Weather View 32 v70,2013-02-26 14:32:00,
2013-02-26 08:37:00,20.0,18.3,30.06,NW,315,6.0,9.0,93,0.00,,,0.00,Weather View 32 v70,2013-02-26 14:37:00,
2013-02-26 08:42:00,20.1,18.4,30.06,NW,315,6.0,9.0,93,0.00,,,0.00,Weather View 32 v70,2013-02-26 14:42:00,
2013-02-26 08:47:00,20.2,18.5,30.06,NW,315,4.0,9.0,93,0.00,,,0.00,Weather View 32 v70,2013-02-26 14:47:00,
2013-02-26 08:52:00,20.3,18.6,30.06,NW,315,4.0,9.0,93,0.00,,,0.00,Weather View 32 v70,2013-02-26 14:52:00,
2013-02-26 08:57:00,20.5,18.8,30.07,NW,315,3.0,9.0,93,0.00,,,0.00,Weather View 32 v70,2013-02-26 14:57:00,
2013-02-26 09:02:00,20.9,19.2,30.07,NW,315,1.0,9.0,93,0.00,,,0.00,Weather View 32 v70,2013-02-26 15:02:00,
2013-02-26 09:07:00,20.9,19.2,30.07,NW,315,3.0,9.0,93,0.00,,,0.00,Weather View 32 v70,2013-02-26 15:07:00,
2013-02-26 09:12:00,20.9,19.2,30.07,NW,315,5.0,9.0,93,0.00,,,0.00,Weather View 32 v70,2013-02-26 15:12:00,
2013-02-26 09:17:00,20.9,19.2,30.06,NW,315,6.0,9.0,93,0.00,,,0.00,Weather View 32 v70,2013-02-26 15:17:00,
2013-02-26 09:22:00,21.2,19.5,30.07,NW,315,3.0,9.0,93,0.00,,,0.00,Weather View 32 v70,2013-02-26 15:22:00,
2013-02-26 09:27:00,21.4,19.7,30.06,NW,315,4.0,9.0,93,0.00,,,0.00,Weather View 32 v70,2013-02-26 15:27:00,
2013-02-26 09:32:00,21.5,19.8,30.06,NW,315,3.0,9.0,93,0.00,,,0.00,Weather View 32 v70,2013-02-26 15:32:00,
2013-02-26 09:37:00,21.8,20.1,30.05,NW,315,2.0,9.0,93,0.00,,,0.00,Weather View 32 v70,2013-02-26 15:37:00,
2013-02-26 09:42:00,22.0,20.3,30.06,NW,315,2.0,9.0,93,0.00,,,0.00,Weather View 32 v70,2013-02-26 15:42:00,
2013-02-26 09:47:00,22.3,20.6,30.06,NW,315,2.0,9.0,93,0.00,,,0.00,Weather View 32 v70,2013-02-26 15:47:00,
2013-02-26 09:52:00,22.7,21.0,30.06,NW,315,1.0,9.0,93,0.00,,,0.00,Weather View 32 v70,2013-02-26 15:52:00,
2013-02-26 09:57:00,23.2,21.5,30.06,NW,315,1.0,9.0,93,0.00,,,0.00,Weather View 32 v70,2013-02-26 15:57:00,
2013-02-26 10:02:00,23.5,21.8,30.06,NW,315,0.0,9.0,93,0.00,,,0.00,Weather View 32 v70,2013-02-26 16:02:00,
2013-02-26 10:07:00,23.7,22.0,30.06,NW,315,1.0,9.0,93,0.00,,,0.00,Weather View 32 v70,2013-02-26 16:07:00,
2013-02-26 10:12:00,23.9,22.2,30.06,NW,315,2.0,9.0,93,0.00,,,0.00,Weather View 32 v70,2013-02-26 16:12:00,
2013-02-26 10:17:00,23.9,22.2,30.06,NW,315,1.0,9.0,93,0.00,,,0.00,Weather View 32 v70,2013-02-26 16:17:00,
2013-02-26 10:23:00,24.3,22.6,30.06,NW,315,1.0,9.0,93,0.00,,,0.00,Weather View 32 v70,2013-02-26 16:23:00,
2013-02-26 10:28:00,24.5,22.8,30.06,NW,315,3.0,9.0,93,0.00,,,0.00,Weather View 32 v70,2013-02-26 16:28:00,
2013-02-26 10:33:00,24.7,23.0,30.06,NW,315,4.0,7.0,93,0.00,,,0.00,Weather View 32 v70,2013-02-26 16:33:00,
2013-02-26 10:38:00,24.9,23.2,30.06,NW,315,2.0,7.0,93,0.00,,,0.00,Weather View 32 v70,2013-02-26 16:38:00,
2013-02-26 10:43:00,25.1,23.6,30.06,NW,315,2.0,7.0,94,0.00,,,0.00,Weather View 32 v70,2013-02-26 16:43:00,
2013-02-26 10:48:00,25.3,23.8,30.06,NW,315,1.0,7.0,94,0.00,,,0.00,Weather View 32 v70,2013-02-26 16:48:00,
2013-02-26 10:53:00,25.7,24.2,30.06,NW,315,1.0,7.0,94,0.00,,,0.00,Weather View 32 v70,2013-02-26 16:53:00,
2013-02-26 10:58:00,25.9,24.4,30.05,NW,315,1.0,7.0,94,0.00,,,0.00,Weather View 32 v70,2013-02-26 16:58:00,
2013-02-26 11:03:00,26.3,24.8,30.05,NW,315,1.0,7.0,94,0.00,,,0.00,Weather View 32 v70,2013-02-26 17:03:00,
2013-02-26 11:08:00,26.6,24.9,30.04,NW,315,4.0,7.0,93,0.00,,,0.00,Weather View 32 v70,2013-02-26 17:08:00,
2013-02-26 11:13:00,26.7,24.9,30.04,NW,315,1.0,7.0,93,0.00,,,0.00,Weather View 32 v70,2013-02-26 17:13:00,
2013-02-26 11:18:00,26.8,24.8,30.04,NW,315,3.0,7.0,92,0.00,,,0.00,Weather View 32 v70,2013-02-26 17:18:00,
2013-02-26 11:23:00,26.6,24.9,30.04,NW,315,7.0,9.0,93,0.00,,,0.00,Weather View 32 v70,2013-02-26 17:23:00,
2013-02-26 11:28:00,26.3,24.8,30.04,NW,315,3.0,9.0,94,0.00,,,0.00,Weather View 32 v70,2013-02-26 17:28:00,
2013-02-26 11:33:00,26.3,24.8,30.04,NW,315,4.0,9.0,94,0.00,,,0.00,Weather View 32 v70,2013-02-26 17:33:00,
2013-02-26 11:38:00,26.7,25.2,30.04,NW,315,5.0,9.0,94,0.00,,,0.00,Weather View 32 v70,2013-02-26 17:38:00,
2013-02-26 11:43:00,26.9,25.1,30.04,NW,315,6.0,9.0,93,0.00,,,0.00,Weather View 32 v70,2013-02-26 17:43:00,
2013-02-26 11:48:00,27.2,25.4,30.04,NW,315,2.0,9.0,93,0.00,,,0.00,Weather View 32 v70,2013-02-26 17:48:00,
2013-02-26 11:53:00,27.2,25.4,30.04,NW,315,3.0,9.0,93,0.00,,,0.00,Weather View 32 v70,2013-02-26 17:53:00,
2013-02-26 11:58:00,27.2,25.4,30.04,NW,315,5.0,9.0,93,0.00,,,0.00,Weather View 32 v70,2013-02-26 17:58:00,
2013-02-26 12:03:00,27.1,25.6,30.04,NW,315,6.0,9.0,94,0.00,,,0.00,Weather View 32 v70,2013-02-26 18:03:00,
2013-02-26 12:08:00,27.6,25.8,30.04,NW,315,6.0,9.0,93,0.00,,,0.00,Weather View 32 v70,2013-02-26 18:08:00,
2013-02-26 12:13:00,27.9,25.9,30.03,NW,315,9.0,9.0,92,0.00,,,0.00,Weather View 32 v70,2013-02-26 18:13:00,
2013-02-26 12:18:00,27.7,25.9,30.03,NW,315,7.0,10.0,93,0.00,,,0.00,Weather View 32 v70,2013-02-26 18:18:00,
2013-02-26 12:23:00,27.4,25.9,30.03,NW,315,9.0,12.0,94,0.00,,,0.00,Weather View 32 v70,2013-02-26 18:23:00,
2013-02-26 12:28:00,27.4,25.9,30.02,NW,315,7.0,12.0,94,0.00,,,0.00,Weather View 32 v70,2013-02-26 18:28:00,
2013-02-26 12:33:00,27.6,26.1,30.02,NW,315,8.0,12.0,94,0.00,,,0.00,Weather View 32 v70,2013-02-26 18:33:00,
2013-02-26 12:38:00,27.9,26.1,30.02,NW,315,10.0,12.0,93,0.00,,,0.00,Weather View 32 v70,2013-02-26 18:38:00,
2013-02-26 12:43:00,27.8,26.3,30.02,NW,315,9.0,12.0,94,0.00,,,0.00,Weather View 32 v70,2013-02-26 18:43:00,
2013-02-26 12:48:00,27.9,26.1,30.02,NW,315,11.0,12.0,93,0.00,,,0.00,Weather View 32 v70,2013-02-26 18:48:00,
2013-02-26 12:53:00,28.3,26.3,30.01,NW,315,10.0,12.0,92,0.00,,,0.00,Weather View 32 v70,2013-02-26 18:53:00,
2013-02-26 12:58:00,28.4,26.4,30.01,NW,315,11.0,13.0,92,0.00,,,0.00,Weather View 32 v70,2013-02-26 18:58:00,
2013-02-26 13:03:00,28.6,26.3,30.00,NW,315,10.0,13.0,91,0.00,,,0.00,Weather View 32 v70,2013-02-26 19:03:00,
2013-02-26 13:08:00,28.9,26.6,30.00,NW,315,7.0,13.0,91,0.00,,,0.00,Weather View 32 v70,2013-02-26 19:08:00,
2013-02-26 13:13:00,29.1,26.8,30.00,NW,315,8.0,13.0,91,0.00,,,0.00,Weather View 32 v70,2013-02-26 19:13:00,
2013-02-26 13:18:00,29.3,26.7,30.00,NW,315,5.0,14.0,90,0.00,,,0.00,Weather View 32 v70,2013-02-26 19:18:00,
2013-02-26 13:24:00,29.5,26.9,30.00,NW,315,5.0,14.0,90,0.00,,,0.00,Weather View 32 v70,2013-02-26 19:24:00,
2013-02-26 13:29:00,29.6,27.0,29.99,NW,315,9.0,14.0,90,0.00,,,0.00,Weather View 32 v70,2013-02-26 19:29:00,
2013-02-26 13:34:00,29.8,27.0,29.99,NW,315,9.0,14.0,89,0.00,,,0.00,Weather View 32 v70,2013-02-26 19:34:00,
2013-02-26 13:39:00,29.9,27.1,29.98,NW,315,9.0,14.0,89,0.00,,,0.00,Weather View 32 v70,2013-02-26 19:39:00,
2013-02-26 13:44:00,30.1,27.0,29.98,NW,315,11.0,14.0,88,0.00,,,0.00,Weather View 32 v70,2013-02-26 19:44:00,
2013-02-26 13:49:00,30.4,27.3,29.98,NNW,337,6.0,14.0,88,0.00,,,0.00,Weather View 32 v70,2013-02-26 19:49:00,
2013-02-26 13:54:00,30.5,27.4,29.98,NW,315,7.0,14.0,88,0.00,,,0.00,Weather View 32 v70,2013-02-26 19:54:00,
2013-02-26 13:59:00,30.8,27.7,29.98,NW,315,6.0,14.0,88,0.00,,,0.00,Weather View 32 v70,2013-02-26 19:59:00,
2013-02-26 14:04:00,30.8,27.7,29.98,NW,315,8.0,14.0,88,0.00,,,0.00,Weather View 32 v70,2013-02-26 20:04:00,
2013-02-26 14:09:00,30.7,27.6,29.98,NW,315,11.0,14.0,88,0.00,,,0.00,Weather View 32 v70,2013-02-26 20:09:00,
2013-02-26 14:14:00,30.8,27.7,29.98,NNW,337,6.0,14.0,88,0.00,,,0.00,Weather View 32 v70,2013-02-26 20:14:00,
2013-02-26 14:19:00,30.9,27.5,29.98,NW,315,1.0,14.0,87,0.00,,,0.00,Weather View 32 v70,2013-02-26 20:19:00,
2013-02-26 14:24:00,31.2,27.5,29.98,NW,315,7.0,14.0,86,0.00,,,0.00,Weather View 32 v70,2013-02-26 20:24:00,
2013-02-26 14:29:00,31.6,27.9,29.98,North,360,2.0,14.0,86,0.00,,,0.00,Weather View 32 v70,2013-02-26 20:29:00,
2013-02-26 14:34:00,31.8,27.8,29.98,North,360,3.0,14.0,85,0.00,,,0.00,Weather View 32 v70,2013-02-26 20:34:00,
2013-02-26 14:39:00,31.6,27.9,29.98,NW,315,6.0,14.0,86,0.00,,,0.00,Weather View 32 v70,2013-02-26 20:39:00,
2013-02-26 14:44:00,31.5,27.8,29.98,NW,315,6.0,13.0,86,0.00,,,0.00,Weather View 32 v70,2013-02-26 20:44:00,
2013-02-26 14:49:00,31.4,27.7,29.98,NW,315,6.0,13.0,86,0.00,,,0.00,Weather View 32 v70,2013-02-26 20:49:00,
2013-02-26 14:54:00,31.1,28.0,29.98,NW,315,2.0,13.0,88,0.00,,,0.00,Weather View 32 v70,2013-02-26 20:54:00,
2013-02-26 14:59:00,31.2,27.8,29.98,NNW,337,6.0,13.0,87,0.00,,,0.00,Weather View 32 v70,2013-02-26 20:59:00,
2013-02-26 15:04:00,31.1,27.7,29.98,North,360,6.0,13.0,87,0.00,,,0.00,Weather View 32 v70,2013-02-26 21:04:00,
2013-02-26 15:09:00,31.4,28.0,29.98,NNW,337,2.0,13.0,87,0.00,,,0.00,Weather View 32 v70,2013-02-26 21:09:00,
2013-02-26 15:14:00,31.6,28.2,29.98,NW,315,4.0,13.0,87,0.00,,,0.00,Weather View 32 v70,2013-02-26 21:14:00,
2013-02-26 15:19:00,31.7,27.7,29.98,NW,315,6.0,13.0,85,0.00,,,0.00,Weather View 32 v70,2013-02-26 21:19:00,
2013-02-26 15:24:00,32.0,28.0,29.98,NW,315,5.0,13.0,85,0.00,,,0.00,Weather View 32 v70,2013-02-26 21:24:00,
2013-02-26 15:29:00,31.9,27.9,29.98,North,360,4.0,13.0,85,0.00,,,0.00,Weather View 32 v70,2013-02-26 21:29:00,
2013-02-26 15:34:00,31.7,27.7,29.98,NW,315,5.0,13.0,85,0.00,,,0.00,Weather View 32 v70,2013-02-26 21:34:00,
2013-02-26 15:39:00,31.7,27.7,29.98,NW,315,3.0,13.0,85,0.00,,,0.00,Weather View 32 v70,2013-02-26 21:39:00,
2013-02-26 15:44:00,31.7,27.7,29.99,North,360,1.0,13.0,85,0.00,,,0.00,Weather View 32 v70,2013-02-26 21:44:00,
2013-02-26 15:49:00,31.8,27.8,29.99,NNW,337,4.0,13.0,85,0.00,,,0.00,Weather View 32 v70,2013-02-26 21:49:00,
2013-02-26 15:54:00,31.9,27.9,29.99,NW,315,8.0,13.0,85,0.00,,,0.00,Weather View 32 v70,2013-02-26 21:54:00,
2013-02-26 15:59:00,31.9,27.9,29.99,NW,315,4.0,13.0,85,0.00,,,0.00,Weather View 32 v70,2013-02-26 21:59:00,
2013-02-26 16:04:00,31.9,27.9,29.99,NW,315,4.0,12.0,85,0.00,,,0.00,Weather View 32 v70,2013-02-26 22:04:00,
2013-02-26 16:09:00,31.8,27.8,29.99,NW,315,11.0,12.0,85,0.00,,,0.00,Weather View 32 v70,2013-02-26 22:09:00,
2013-02-26 16:14:00,31.5,27.5,29.99,NNW,337,2.0,12.0,85,0.00,,,0.00,Weather View 32 v70,2013-02-26 22:14:00,
2013-02-26 16:19:00,31.4,27.7,29.99,NW,315,6.0,12.0,86,0.00,,,0.00,Weather View 32 v70,2013-02-26 22:19:00,
2013-02-26 16:24:00,31.2,27.5,29.99,ENE,67,1.0,12.0,86,0.00,,,0.00,Weather View 32 v70,2013-02-26 22:24:00,
2013-02-26 16:29:00,31.1,27.4,29.99,NW,315,7.0,12.0,86,0.00,,,0.00,Weather View 32 v70,2013-02-26 22:29:00,
2013-02-26 16:35:00,31.0,27.3,29.99,NW,315,3.0,12.0,86,0.00,,,0.00,Weather View 32 v70,2013-02-26 22:35:00,
2013-02-26 16:40:00,31.0,27.3,29.99,NW,315,11.0,12.0,86,0.00,,,0.00,Weather View 32 v70,2013-02-26 22:40:00,
2013-02-26 16:45:00,31.0,27.3,30.00,North,360,4.0,12.0,86,0.00,,,0.00,Weather View 32 v70,2013-02-26 22:45:00,
2013-02-26 16:50:00,30.9,27.5,30.00,NNW,337,4.0,12.0,87,0.00,,,0.00,Weather View 32 v70,2013-02-26 22:50:00,
2013-02-26 16:55:00,30.9,27.5,30.00,NW,315,5.0,12.0,87,0.00,,,0.00,Weather View 32 v70,2013-02-26 22:55:00,
2013-02-26 17:00:00,30.9,27.2,30.00,North,360,2.0,12.0,86,0.00,,,0.00,Weather View 32 v70,2013-02-26 23:00:00,
2013-02-26 17:05:00,30.9,27.2,30.00,NW,315,6.0,12.0,86,0.00,,,0.00,Weather View 32 v70,2013-02-26 23:05:00,
2013-02-26 17:10:00,30.6,27.2,30.00,NNW,337,6.0,13.0,87,0.00,,,0.00,Weather View 32 v70,2013-02-26 23:10:00,
2013-02-26 17:15:00,30.5,27.1,30.00,NNW,337,7.0,13.0,87,0.00,,,0.00,Weather View 32 v70,2013-02-26 23:15:00,
2013-02-26 17:20:00,30.4,27.5,30.01,NW,315,9.0,13.0,89,0.00,,,0.00,Weather View 32 v70,2013-02-26 23:20:00,
2013-02-26 17:25:00,30.2,27.3,30.01,NW,315,7.0,13.0,89,0.00,,,0.00,Weather View 32 v70,2013-02-26 23:25:00,
2013-02-26 17:30:00,30.1,27.5,30.01,NW,315,9.0,13.0,90,0.00,,,0.00,Weather View 32 v70,2013-02-26 23:30:00,
2013-02-26 17:35:00,29.9,27.3,30.01,NW,315,7.0,13.0,90,0.00,,,0.00,Weather View 32 v70,2013-02-26 23:35:00,
2013-02-26 17:40:00,29.9,27.3,30.01,NW,315,11.0,13.0,90,0.00,,,0.00,Weather View 32 v70,2013-02-26 23:40:00,
2013-02-26 17:45:00,29.8,27.2,30.01,WNW,292,7.0,13.0,90,0.00,,,0.00,Weather View 32 v70,2013-02-26 23:45:00,
2013-02-26 17:50:00,29.7,27.1,30.02,NW,315,10.0,13.0,90,0.00,,,0.00,Weather View 32 v70,2013-02-26 23:50:00,
2013-02-26 17:55:00,29.6,27.0,30.02,NW,315,14.0,14.0,90,0.00,,,0.00,Weather View 32 v70,2013-02-26 23:55:00,
2013-02-26 18:00:00,29.5,26.9,30.02,NW,315,10.0,14.0,90,0.00,,,0.00,Weather View 32 v70,2013-02-27 00:00:00,
2013-02-26 18:05:00,29.4,26.8,30.02,NNW,337,7.0,14.0,90,0.00,,,0.00,Weather View 32 v70,2013-02-27 00:05:00,
2013-02-26 18:10:00,29.4,26.8,30.02,NW,315,6.0,14.0,90,0.00,,,0.00,Weather View 32 v70,2013-02-27 00:10:00,
2013-02-26 18:15:00,29.3,26.7,30.02,NW,315,9.0,14.0,90,0.00,,,0.00,Weather View 32 v70,2013-02-27 00:15:00,
2013-02-26 18:20:00,29.3,26.7,30.03,North,360,6.0,14.0,90,0.00,,,0.00,Weather View 32 v70,2013-02-27 00:20:00,
2013-02-26 18:25:00,29.3,26.5,30.03,NW,315,8.0,14.0,89,0.00,,,0.00,Weather View 32 v70,2013-02-27 00:25:00,
2013-02-26 18:30:00,29.3,26.5,30.03,NW,315,6.0,14.0,89,0.00,,,0.00,Weather View 32 v70,2013-02-27 00:30:00,
2013-02-26 18:35:00,29.2,26.6,30.04,NNW,337,6.0,14.0,90,0.00,,,0.00,Weather View 32 v70,2013-02-27 00:35:00,
2013-02-26 18:40:00,29.1,26.5,30.04,NNW,337,7.0,14.0,90,0.00,,,0.00,Weather View 32 v70,2013-02-27 00:40:00,
2013-02-26 18:45:00,29.1,26.5,30.04,NNW,337,2.0,14.0,90,0.00,,,0.00,Weather View 32 v70,2013-02-27 00:45:00,
2013-02-26 18:50:00,29.2,26.6,30.04,North,360,1.0,14.0,90,0.00,,,0.00,Weather View 32 v70,2013-02-27 00:50:00,
2013-02-26 18:55:00,29.1,26.3,30.04,NW,315,2.0,14.0,89,0.00,,,0.00,Weather View 32 v70,2013-02-27 00:55:00,
2013-02-26 19:00:00,29.0,26.4,30.05,NW,315,2.0,14.0,90,0.00,,,0.00,Weather View 32 v70,2013-02-27 01:00:00,
2013-02-26 19:05:00,28.9,26.1,30.05,NNW,337,2.0,14.0,89,0.00,,,0.00,Weather View 32 v70,2013-02-27 01:05:00,
2013-02-26 19:10:00,28.8,26.2,30.05,NNW,337,4.0,11.0,90,0.00,,,0.00,Weather View 32 v70,2013-02-27 01:10:00,
2013-02-26 19:15:00,28.7,26.1,30.05,NW,315,4.0,11.0,90,0.00,,,0.00,Weather View 32 v70,2013-02-27 01:15:00,
2013-02-26 19:20:00,28.7,26.1,30.05,NW,315,1.0,11.0,90,0.00,,,0.00,Weather View 32 v70,2013-02-27 01:20:00,
2013-02-26 19:25:00,28.6,26.0,30.06,NW,315,2.0,11.0,90,0.00,,,0.00,Weather View 32 v70,2013-02-27 01:25:00,
2013-02-26 19:30:00,28.6,26.0,30.06,NNW,337,2.0,11.0,90,0.00,,,0.00,Weather View 32 v70,2013-02-27 01:30:00,
2013-02-26 19:35:00,28.6,26.0,30.06,North,360,1.0,11.0,90,0.00,,,0.00,Weather View 32 v70,2013-02-27 01:35:00,
2013-02-26 19:40:00,28.5,25.4,30.06,North,360,8.0,11.0,88,0.00,,,0.00,Weather View 32 v70,2013-02-27 01:40:00,
2013-02-26 19:45:00,28.4,25.3,30.06,NNE,22,6.0,10.0,88,0.00,,,0.00,Weather View 32 v70,2013-02-27 01:45:00,
2013-02-26 19:50:00,28.3,25.2,30.06,North,360,6.0,10.0,88,0.00,,,0.00,Weather View 32 v70,2013-02-27 01:50:00,
2013-02-26 19:55:00,28.2,25.1,30.06,NNE,22,4.0,11.0,88,0.00,,,0.00,Weather View 32 v70,2013-02-27 01:55:00,
2013-02-26 20:00:00,28.1,25.0,30.06,NW,315,2.0,11.0,88,0.00,,,0.00,Weather View 32 v70,2013-02-27 02:00:00,
2013-02-26 20:05:00,27.9,24.8,30.06,North,360,3.0,11.0,88,0.00,,,0.00,Weather View 32 v70,2013-02-27 02:05:00,
2013-02-26 20:10:00,27.9,24.8,30.06,North,360,1.0,11.0,88,0.00,,,0.00,Weather View 32 v70,2013-02-27 02:10:00,
2013-02-26 20:15:00,27.8,25.0,30.06,NW,315,4.0,11.0,89,0.00,,,0.00,Weather View 32 v70,2013-02-27 02:15:00,
2013-02-26 20:20:00,27.6,24.5,30.06,NNW,337,3.0,15.0,88,0.00,,,0.00,Weather View 32 v70,2013-02-27 02:20:00,
2013-02-26 20:25:00,27.5,24.7,30.05,North,360,6.0,15.0,89,0.00,,,0.00,Weather View 32 v70,2013-02-27 02:25:00,
2013-02-26 20:30:00,27.3,24.2,30.05,North,360,2.0,15.0,88,0.00,,,0.00,Weather View 32 v70,2013-02-27 02:30:00,
2013-02-26 20:35:00,27.2,24.1,30.05,North,360,6.0,15.0,88,0.00,,,0.00,Weather View 32 v70,2013-02-27 02:35:00,
2013-02-26 20:40:00,27.0,24.2,30.06,NW,315,2.0,15.0,89,0.00,,,0.00,Weather View 32 v70,2013-02-27 02:40:00,
2013-02-26 20:45:00,26.9,24.1,30.06,North,360,7.0,15.0,89,0.00,,,0.00,Weather View 32 v70,2013-02-27 02:45:00,
2013-02-26 20:50:00,26.9,24.1,30.06,NNE,22,2.0,15.0,89,0.00,,,0.00,Weather View 32 v70,2013-02-27 02:50:00,
2013-02-26 20:55:00,26.8,24.0,30.06,NNE,22,9.0,15.0,89,0.00,,,0.00,Weather View 32 v70,2013-02-27 02:55:00,
2013-02-26 21:00:00,26.7,23.9,30.06,North,360,6.0,15.0,89,0.00,,,0.00,Weather View 32 v70,2013-02-27 03:00:00,
2013-02-26 21:05:00,26.6,24.1,30.06,North,360,5.0,15.0,90,0.00,,,0.00,Weather View 32 v70,2013-02-27 03:05:00,
2013-02-26 21:10:00,26.5,23.7,30.07,NNE,22,4.0,15.0,89,0.00,,,0.00,Weather View 32 v70,2013-02-27 03:10:00,
2013-02-26 21:15:00,26.4,23.6,30.07,North,360,3.0,15.0,89,0.00,,,0.00,Weather View 32 v70,2013-02-27 03:15:00,
2013-02-26 21:20:00,26.3,23.5,30.08,NNE,22,2.0,15.0,89,0.00,,,0.00,Weather View 32 v70,2013-02-27 03:20:00,
2013-02-26 21:25:00,26.2,23.7,30.08,NNW,337,2.0,15.0,90,0.00,,,0.00,Weather View 32 v70,2013-02-27 03:25:00,
2013-02-26 21:30:00,26.1,23.6,30.08,NNW,337,3.0,16.0,90,0.00,,,0.00,Weather View 32 v70,2013-02-27 03:30:00,
2013-02-26 21:35:00,25.9,23.4,30.07,NNW,337,6.0,16.0,90,0.00,,,0.00,Weather View 32 v70,2013-02-27 03:35:00,
2013-02-26 21:40:00,25.9,23.4,30.08,NNW,337,6.0,16.0,90,0.00,,,0.00,Weather View 32 v70,2013-02-27 03:40:00,
2013-02-26 21:45:00,25.7,23.2,30.08,North,360,2.0,16.0,90,0.00,,,0.00,Weather View 32 v70,2013-02-27 03:45:00,
2013-02-26 21:50:00,25.6,23.1,30.08,North,360,5.0,16.0,90,0.00,,,0.00,Weather View 32 v70,2013-02-27 03:50:00,
2013-02-26 21:55:00,25.4,22.9,30.07,North,360,3.0,16.0,90,0.00,,,0.00,Weather View 32 v70,2013-02-27 03:55:00,
2013-02-26 22:00:00,25.3,22.8,30.08,NW,315,5.0,16.0,90,0.00,,,0.00,Weather View 32 v70,2013-02-27 04:00:00,
2013-02-26 22:05:00,25.2,22.7,30.08,North,360,2.0,16.0,90,0.00,,,0.00,Weather View 32 v70,2013-02-27 04:05:00,
2013-02-26 22:10:00,25.0,22.5,30.09,North,360,2.0,16.0,90,0.00,,,0.00,Weather View 32 v70,2013-02-27 04:10:00,
2013-02-26 22:15:00,24.9,22.4,30.08,NW,315,2.0,16.0,90,0.00,,,0.00,Weather View 32 v70,2013-02-27 04:15:00,
2013-02-26 22:20:00,24.8,22.3,30.08,NNE,22,4.0,16.0,90,0.00,,,0.00,Weather View 32 v70,2013-02-27 04:20:00,
2013-02-26 22:25:00,24.7,22.2,30.08,NW,315,7.0,16.0,90,0.00,,,0.00,Weather View 32 v70,2013-02-27 04:25:00,
2013-02-26 22:30:00,24.6,22.4,30.08,NW,315,9.0,10.0,91,0.02,,,0.00,Weather View 32 v70,2013-02-27 04:30:00,
2013-02-26 22:35:00,24.5,22.3,30.08,NW,315,6.0,10.0,91,0.02,,,0.00,Weather View 32 v70,2013-02-27 04:35:00,
2013-02-26 22:40:00,24.5,22.5,30.08,NW,315,7.0,11.0,92,0.00,,,0.00,Weather View 32 v70,2013-02-27 04:40:00,
2013-02-26 22:45:00,24.4,22.4,30.08,NW,315,7.0,12.0,92,0.00,,,0.00,Weather View 32 v70,2013-02-27 04:45:00,
2013-02-26 22:50:00,24.4,22.4,30.08,NW,315,5.0,12.0,92,0.00,,,0.00,Weather View 32 v70,2013-02-27 04:50:00,
2013-02-26 22:55:00,24.4,22.4,30.08,NW,315,8.0,12.0,92,0.00,,,0.00,Weather View 32 v70,2013-02-27 04:55:00,
2013-02-26 23:00:00,24.4,22.7,30.08,NW,315,8.0,12.0,93,0.00,,,0.00,Weather View 32 v70,2013-02-27 05:00:00,
2013-02-26 23:05:00,24.4,22.7,30.08,NW,315,7.0,13.0,93,0.00,,,0.00,Weather View 32 v70,2013-02-27 05:05:00,
2013-02-26 23:10:00,24.4,22.7,30.08,WNW,292,6.0,13.0,93,0.00,,,0.00,Weather View 32 v70,2013-02-27 05:10:00,
2013-02-26 23:15:00,24.4,22.7,30.08,NW,315,6.0,13.0,93,0.00,,,0.00,Weather View 32 v70,2013-02-27 05:15:00,
2013-02-26 23:20:00,24.4,22.7,30.08,West,270,6.0,13.0,93,0.00,,,0.00,Weather View 32 v70,2013-02-27 05:20:00,
2013-02-26 23:25:00,24.4,22.7,30.08,WNW,292,7.0,13.0,93,0.00,,,0.00,Weather View 32 v70,2013-02-27 05:25:00,
2013-02-26 23:30:00,24.5,22.8,30.08,NW,315,11.0,13.0,93,0.00,,,0.00,Weather View 32 v70,2013-02-27 05:30:00,
2013-02-26 23:35:00,24.5,22.8,30.08,West,270,7.0,13.0,93,0.00,,,0.00,Weather View 32 v70,2013-02-27 05:35:00,
2013-02-26 23:40:00,24.4,22.7,30.08,WNW,292,8.0,15.0,93,0.00,,,0.00,Weather View 32 v70,2013-02-27 05:40:00,
2013-02-26 23:45:00,24.4,22.7,30.08,NW,315,7.0,15.0,93,0.00,,,0.00,Weather View 32 v70,2013-02-27 05:45:00,
2013-02-26 23:50:00,24.3,22.6,30.08,WNW,292,8.0,15.0,93,0.00,,,0.00,Weather View 32 v70,2013-02-27 05:50:00,
2013-02-26 23:55:00,24.2,22.5,30.08,WNW,292,8.0,15.0,93,0.00,,,0.00,Weather View 32 v70,2013-02-27 05:55:00,